Belle Plaine, Minnesota
Current Conditions -  °F | °C
As of 6:55 PM on Monday 22 Dec 2014 (Local Time) from KGYL Reporting Station
Haze Haze  
Wind Chill: 28°   Ceiling: 700
Heat Index: 36°   Visibility: 4mi
Dew Point: 36°   Wind: 12mph
Humidity: 100%   Direction: 90°E
Pressure: 29.57"   Gusts: NA
Location:  44.62°N, 93.77°W
Report Text: KGYL 230055Z AUTO 09010KT 4SM BR OVC007 02/02 A2957 RMK AO2 T00210022
Loading
Personal Weather Stations






























Interactive Weather Map New forecast layout! Learn more

10-Day Weather Forecast

Advertisements
Track Severe Weather on mobile